CheckWX is a tool to help pilots better visualize weather data.  It is not intended as a substitute for an official pre-flight weather briefing.

06:14:47 UTC

EKAH METAR
Aarhus Airport
Aarhus, Denmark
Current

25 mins ago

EKAH 270550Z AUTO 27007KT 9999NDV BKN006/// 10/10 Q1001
Observed
May-27 @ 05:50 UTC
Wind
  • 270° at 7 KTS
Visibility
Cloud Levels
  • Broken at 600' AGL
Temperature
10°C / 50°F
Dewpoint
10°C / 50°F
Humidity
100%
Altimeter
29.56" Hg
Pressure
1000.92 hPa
Previous

55 mins ago

EKAH 270520Z AUTO 27007KT 5000NDV OVC003/// 09/09 Q1000
Observed
May-27 @ 05:20 UTC
Wind
  • 270° at 7 KTS
Visibility
Cloud Levels
  • Overcast at 300' AGL
Temperature
C / 48°F
Dewpoint
C / 48°F
Humidity
100%
Altimeter
29.53" Hg
Pressure
999.92 hPa
Previous

1 hour ago

EKAH 270450Z AUTO 29009KT 3900NDV BR OVC003/// 09/09 Q1000
Observed
May-27 @ 04:50 UTC
Wind
  • 290° at 9 KTS
Visibility
Conditions
Mist
Cloud Levels
  • Overcast at 300' AGL
Temperature
C / 48°F
Dewpoint
C / 48°F
Humidity
100%
Altimeter
29.53" Hg
Pressure
999.92 hPa